Santa Pola, Spain
Current Conditions -  °F | °C
As of 3:00 AM on Saturday 29 Nov 2014 (Local Time) from LEAL Reporting Station
Light Rain Light Rain  
Wind Chill: 63°   Ceiling: 4800
Heat Index: 63°   Visibility: 6mi
Dew Point: 57°   Wind: 12mph
Humidity: 82%   Direction: 100°E
Pressure: 29.23"   Gusts: NA
Location:  38.19°N, 0.56°W
Report Text: LEAL 290200Z 10010KT 9999 -RA OVC048 17/14 Q0990 NOSIG
Loading
Personal Weather Stations






























Interactive Weather Map New forecast layout! Learn more

10-Day Weather Forecast

Advertisements
Track Severe Weather on mobile